Date,TemperatureHighF,TemperatureAvgF,TemperatureLowF,DewpointHighF,DewpointAvgF,DewpointLowF,HumidityHigh,HumidityAvg,HumidityLow,PressureMaxIn,PressureMinIn,WindSpeedMaxMPH,WindSpeedAvgMPH,GustSpeedMaxMPH,PrecipitationSumIn
2012-1-1,50,42,36,44,38,35,100,86,62,30.03,29.61,4,2,16,0.03
2012-1-2,47,39,32,47,28,17,100,67,40,29.68,29.51,6,2,16,0.05
2012-1-3,27,21,13,16,6,-4,65,50,40,29.97,29.70,6,1,18,0.00
2012-1-4,25,16,7,6,0,-4,65,49,34,30.06,29.88,4,1,6,0.00
2012-1-5,35,28,22,23,15,6,69,58,49,29.88,29.71,3,1,6,0.00
2012-1-6,45,33,24,33,25,13,83,71,59,29.89,29.68,2,0,0,0.00
2012-1-7,58,42,30,35,31,26,92,68,40,29.85,29.61,3,1,0,0.00
2012-1-8,42,37,27,28,23,16,70,59,42,30.23,29.85,3,1,0,0.00
2012-1-9,39,29,21,18,14,11,76,55,32,30.25,29.96,2,0,0,0.00
2012-1-10,44,35,27,29,26,19,91,69,54,29.95,29.72,4,1,0,0.00
2012-1-11,38,32,26,29,23,20,85,72,54,30.09,29.91,1,0,0,0.00
2012-1-12,38,34,31,38,33,29,100,97,85,30.01,29.45,5,2,13,0.86
2012-1-13,47,33,28,41,28,16,100,84,53,29.55,29.14,12,3,26,0.03
2012-1-14,32,26,16,19,13,3,69,56,39,29.96,29.56,6,2,14,0.00
2012-1-15,16,10,4,6,-3,-7,66,56,40,30.45,29.96,5,1,15,0.00
2012-1-16,30,19,6,29,4,-4,97,56,28,30.52,30.09,4,1,12,0.00
2012-1-17,44,36,30,44,35,29,100,94,85,30.08,29.43,4,1,14,0.14
2012-1-18,49,41,34,45,31,19,100,69,50,29.70,29.39,7,5,19,0.14
2012-1-19,27,26,26,24,21,19,91,81,76,30.03,29.93,2,0,7,0.00
2012-1-20,28,24,19,25,15,3,97,69,46,30.23,29.88,5,1,12,0.06
2012-1-21,19,16,13,15,10,3,88,77,51,30.29,30.06,2,0,6,0.01
2012-1-22,28,20,10,21,13,4,81,74,63,30.52,30.29,2,0,5,0.02
2012-1-23,39,32,25,39,28,20,100,87,80,30.47,29.83,0,0,2,0.15
2012-1-24,53,46,38,48,41,28,100,82,60,30.01,29.82,4,2,15,0.14
2012-1-25,40,36,32,29,25,24,76,66,58,30.17,30.01,5,1,10,0.00
2012-1-26,40,34,30,32,28,25,98,81,62,30.18,29.96,2,0,5,0.13
2012-1-27,39,36,32,39,36,31,100,98,77,29.96,29.25,7,1,16,1.07
2012-1-28,45,38,32,32,29,26,81,69,51,29.96,29.57,6,2,20,0.03
2012-1-29,40,35,32,31,17,12,77,48,33,30.03,29.84,7,3,18,0.00
2012-1-30,36,32,25,25,17,10,72,55,33,30.25,29.88,6,2,16,0.00
2012-1-31,43,33,25,27,23,17,85,68,51,30.25,29.97,2,0,4,0.00
2012-2-1,57,41,30,43,35,27,100,79,58,29.98,29.72,7,2,20,0.00
2012-2-2,41,35,29,31,28,20,84,76,65,30.14,29.93,3,0,9,0.00
2012-2-3,37,30,21,20,14,8,69,53,31,30.33,30.14,4,1,14,0.00
2012-2-4,42,33,25,26,19,9,79,56,40,30.23,30.06,5,1,13,0.00
2012-2-5,35,26,17,13,9,6,69,49,32,30.13,30.02,2,0,7,0.00
2012-2-6,48,36,25,24,20,13,72,55,35,30.04,29.80,6,2,11,0.00
2012-2-7,42,36,28,28,24,17,72,61,50,30.19,29.84,2,0,12,0.00
2012-2-8,36,28,17,17,10,6,68,49,31,30.28,30.03,4,0,8,0.00
2012-2-9,45,35,27,16,14,12,61,43,28,30.05,29.93,3,0,10,0.00
2012-2-10,48,37,27,31,20,13,77,50,32,30.06,29.85,6,1,16,0.00
2012-2-11,38,33,28,32,27,16,96,78,54,29.85,29.50,3,1,13,0.02
2012-2-12,27,20,13,15,2,-3,61,44,33,29.85,29.52,8,3,22,0.01
2012-2-13,39,27,13,20,13,-1,73,56,39,29.94,29.76,8,2,15,0.00
2012-2-14,42,33,25,21,16,12,72,52,29,30.06,29.94,2,0,6,0.00
2012-2-15,44,37,32,36,30,21,88,75,61,30.19,30.05,2,0,3,0.00
2012-2-16,45,37,29,35,31,27,98,81,56,30.24,30.01,3,0,12,0.06
2012-2-17,48,40,33,42,32,20,100,75,46,30.00,29.82,4,1,12,0.07
2012-2-18,44,36,30,29,23,20,88,60,39,29.94,29.80,5,2,14,0.01
2012-2-19,43,34,27,30,21,15,91,60,32,30.02,29.92,3,0,7,0.00
2012-2-20,39,30,24,16,12,6,68,49,26,30.26,29.96,6,1,15,0.00
2012-2-21,42,33,22,35,19,13,89,60,33,30.29,29.82,5,1,16,0.00
2012-2-22,54,43,33,38,32,26,99,68,37,29.82,29.51,5,1,13,0.00
2012-2-23,51,44,37,45,34,24,96,71,45,29.74,29.32,8,1,16,0.03
2012-2-24,38,35,33,38,31,23,100,85,61,29.77,29.19,3,0,7,0.60
2012-2-25,41,36,29,36,23,16,100,62,40,29.75,29.19,13,6,22,0.43
2012-2-26,39,31,24,16,7,2,58,37,24,30.39,29.75,7,3,22,0.00
2012-2-27,50,36,22,32,21,8,78,56,43,30.40,29.98,9,2,15,0.00
2012-2-28,45,38,30,33,20,13,75,49,31,30.35,29.99,6,2,18,0.00
2012-2-29,35,31,29,32,22,13,100,72,46,30.34,29.89,1,0,3,0.01
2012-3-1,32,29,21,32,28,19,100,99,92,29.97,29.71,3,1,12,0.06
2012-3-2,29,25,21,27,23,19,94,91,86,30.12,29.94,2,0,9,0.01
2012-3-3,42,35,29,42,35,27,100,99,92,29.93,29.34,2,0,5,0.61
2012-3-4,40,34,30,34,25,20,99,69,49,29.65,29.49,3,0,7,0.25
2012-3-5,34,28,23,20,12,5,65,51,31,30.26,29.60,6,2,14,0.05
2012-3-6,36,26,15,12,6,1,66,44,23,30.54,30.26,3,1,9,0.03
2012-3-7,58,43,27,37,29,13,82,59,36,30.52,30.21,6,3,16,0.01
2012-3-8,67,54,47,48,44,37,85,70,46,30.21,29.91,10,4,23,0.00
2012-3-25,47,43,41,41,37,30,93,80,53,29.92,29.68,1,0,3,0.02
2012-3-26,45,39,29,45,25,5,100,62,30,29.95,29.59,7,2,23,0.02
2012-3-27,46,34,24,5,1,-2,36,25,14,30.14,29.94,6,2,21,0.00
2012-3-28,50,42,33,44,27,5,92,60,29,30.12,29.52,4,0,12,0.07
2012-3-29,48,43,39,45,34,27,95,74,56,29.88,29.49,5,1,12,0.03
2012-3-30,50,41,35,28,19,11,69,45,21,29.99,29.88,7,1,22,0.01
2012-3-31,42,38,34,36,31,22,92,76,49,30.01,29.86,2,0,5,0.02
2012-4-1,50,39,28,40,33,27,99,81,48,29.86,29.59,3,0,9,0.15
2012-4-2,52,42,35,39,28,12,100,66,25,29.78,29.55,5,2,20,0.18
2012-4-3,57,44,33,18,14,9,45,30,20,29.81,29.69,5,1,16,0.01
2012-4-4,61,49,40,38,24,15,82,40,22,29.71,29.44,8,1,20,0.00
2012-4-5,49,42,35,34,27,22,81,58,38,29.86,29.61,5,1,14,0.00
2012-4-6,51,41,32,25,21,16,67,46,29,29.95,29.83,4,1,12,0.00
2012-4-7,53,42,34,28,21,15,62,43,29,29.97,29.86,6,1,19,0.00
2012-4-8,52,44,38,29,26,22,69,51,34,29.96,29.57,5,1,14,0.00
2012-4-9,56,48,40,33,31,27,66,53,39,29.60,29.46,8,3,16,0.00
2012-4-10,60,50,39,31,26,22,57,42,25,29.72,29.56,5,1,13,0.00
2012-4-11,56,47,41,39,32,27,88,57,37,29.84,29.71,3,0,7,0.01
2012-4-12,55,44,40,40,38,34,92,80,49,30.04,29.82,5,1,15,0.02
2012-4-13,64,51,36,37,29,23,90,50,23,30.11,29.98,3,1,11,0.01
2012-4-14,69,58,45,34,27,23,42,32,20,30.11,29.94,5,1,11,0.00
2012-4-15,75,63,53,56,47,-100,71,56,43,29.96,29.86,5,1,10,0.00
2012-4-16,91,72,59,60,56,49,98,62,26,29.98,29.85,10,1,19,0.03
2012-4-17,82,69,56,57,42,27,94,46,16,30.11,29.85,5,2,15,0.00
2012-4-18,63,54,47,42,33,28,80,47,31,30.22,30.09,4,1,11,0.00
2012-4-19,71,56,43,46,40,29,96,63,21,30.10,29.93,4,1,10,0.00
2012-4-20,77,60,46,48,44,41,91,61,30,29.98,29.88,6,1,16,0.00
2012-4-21,76,62,53,57,53,45,97,74,46,29.88,29.66,6,2,16,0.00
2012-4-22,59,50,41,58,47,-100,100,96,86,29.79,29.63,7,1,12,0.95
2012-4-23,59,48,40,59,47,40,100,95,81,29.65,29.28,6,2,14,2.10
2012-4-24,55,48,43,43,35,29,90,62,38,29.66,29.36,6,2,20,0.01
2012-4-25,60,49,38,38,34,28,96,60,31,29.84,29.66,5,1,11,0.00
2012-4-26,66,50,37,48,36,29,87,61,30,29.92,29.52,3,1,12,0.00
2012-4-27,53,48,37,52,36,23,98,64,42,29.96,29.47,9,3,22,0.01
2012-4-28,58,45,32,24,21,18,68,42,23,30.08,29.96,4,1,15,0.00
2012-4-29,58,47,36,24,17,-100,61,33,18,30.17,29.96,5,1,20,0.00
2012-4-30,62,49,35,35,23,15,56,37,24,30.29,30.15,4,1,8,0.00
2012-5-1,50,45,42,46,42,31,100,90,52,30.19,30.01,4,1,6,0.60
2012-5-2,52,46,42,47,44,42,100,93,77,30.20,30.09,2,0,4,0.38
2012-5-3,52,48,45,51,47,43,100,96,90,30.17,30.08,0,0,3,0.11
2012-5-4,59,52,48,56,52,48,100,98,88,30.08,29.88,2,0,7,0.01
2012-5-5,62,54,49,56,52,47,100,92,76,30.06,29.91,2,0,5,0.01
2012-5-6,62,53,46,50,45,-100,100,79,54,30.11,30.03,2,0,5,0.01
2012-5-7,72,57,45,48,46,42,98,69,34,30.11,30.04,3,0,10,0.00
2012-5-8,56,52,47,54,47,39,100,85,61,30.07,29.85,3,0,14,0.21
2012-5-9,62,58,54,62,58,54,100,100,100,29.85,29.57,3,0,7,0.35
2012-5-10,64,56,49,58,50,40,100,82,49,29.66,29.36,3,1,11,1.20
2012-5-11,65,54,44,41,38,32,82,57,31,30.01,29.66,3,1,15,0.03
2012-5-12,78,62,46,47,38,29,69,45,23,30.12,30.01,5,1,9,0.00
2012-5-13,82,67,54,56,48,-100,82,54,30,30.13,30.02,6,0,6,0.00
2012-5-14,74,61,55,64,56,51,100,86,60,30.15,30.06,2,0,4,0.06
2012-5-15,72,62,56,60,58,55,100,89,56,30.14,29.94,5,0,13,0.63
2012-5-16,72,64,60,66,62,60,100,96,78,29.94,29.78,3,0,11,0.64
2012-5-17,70,60,50,62,44,35,100,59,28,30.12,29.85,4,1,15,0.02
2012-5-18,73,59,44,48,44,39,90,61,33,30.23,30.12,2,0,6,0.00
2012-5-19,78,62,46,51,45,41,87,57,31,30.17,30.09,2,0,9,0.00
2012-5-20,82,66,52,56,49,-100,94,59,31,30.27,30.14,1,0,7,0.00
2012-5-21,68,59,50,61,55,45,100,85,61,30.27,30.05,1,0,4,0.09
2012-5-22,62,59,57,62,59,57,100,100,100,30.05,29.80,1,0,5,0.54
2012-5-23,79,67,59,65,62,59,100,87,59,30.03,29.82,1,0,4,0.03
2012-5-24,78,67,59,64,62,58,100,85,59,30.23,30.03,1,0,7,0.00
2012-5-25,76,65,59,68,62,58,99,90,73,30.24,30.09,2,0,10,0.00
2012-5-26,85,74,66,71,66,61,99,78,51,30.09,30.01,2,0,7,0.00
2012-5-27,81,70,62,61,55,48,82,60,37,30.15,29.99,2,0,5,0.00
2012-5-28,77,67,61,63,60,57,98,79,61,30.01,29.91,1,0,4,0.00
2012-5-29,77,67,61,69,64,59,100,91,74,29.93,29.69,1,0,10,0.16
2012-5-30,73,68,64,68,65,62,100,91,73,29.74,29.68,0,0,4,0.16
2012-5-31,80,70,61,63,55,50,94,63,37,29.89,29.69,3,0,10,0.00
2012-6-1,68,61,55,52,47,41,79,60,38,30.05,29.89,1,0,9,0.00
2012-6-2,62,57,51,62,56,46,100,95,72,29.98,29.66,2,0,9,1.12
2012-6-3,64,57,53,60,53,-100,100,89,71,29.68,29.63,4,1,11,0.28
2012-6-4,53,49,47,50,49,47,100,98,88,29.78,29.60,4,1,7,0.17
2012-6-5,56,51,47,51,49,47,100,94,80,29.92,29.76,1,0,6,0.13
2012-6-6,65,55,48,57,52,48,100,93,62,29.97,29.91,1,0,7,0.31
2012-6-7,70,58,53,60,56,53,100,92,57,29.96,29.88,2,0,5,0.41
2012-6-8,78,63,50,64,57,50,100,84,44,29.92,29.74,4,0,12,0.05
2012-6-9,75,66,56,61,55,47,98,72,40,29.92,29.77,3,0,7,0.03
2012-6-10,81,68,56,58,51,-100,94,61,36,30.20,29.92,1,0,4,0.00
2012-6-11,76,64,55,59,55,52,96,74,50,30.27,30.19,2,0,10,0.00
2012-6-12,73,64,56,62,58,51,100,81,64,30.19,29.96,6,1,14,0.00
2012-6-13,65,62,60,65,62,60,100,100,100,30.05,29.90,2,0,6,0.47
2012-6-14,73,64,58,63,56,47,100,78,40,30.25,30.05,2,0,0,0.00
2012-6-15,73,63,54,55,52,49,89,67,48,30.31,30.23,1,0,0,0.00
2012-6-16,69,60,51,57,53,49,97,79,62,30.32,30.26,1,0,0,0.00
2012-6-17,69,58,50,55,51,-100,100,80,58,30.27,30.09,1,0,0,0.00
2012-6-18,72,60,50,59,53,49,99,81,50,30.15,30.08,1,0,0,0.00
2012-6-19,71,63,55,65,59,53,100,87,73,30.14,30.02,2,0,0,0.00
2012-6-20,93,79,64,76,70,62,100,76,55,30.02,29.85,1,0,0,0.00
2012-6-21,93,83,75,75,70,67,79,66,45,29.86,29.72,1,0,0,0.00
2012-6-22,92,79,69,71,69,66,100,73,46,29.76,29.68,2,0,0,0.00
2012-6-23,84,70,61,70,65,57,100,84,47,29.91,29.75,4,0,0,0.00
2012-6-24,83,71,60,61,56,48,98,64,31,29.94,29.85,1,0,0,0.00
2012-6-25,70,65,59,67,62,59,100,93,70,29.85,29.63,2,0,0,0.00
2012-6-26,70,62,55,60,57,53,100,85,64,29.63,29.54,3,1,0,0.00
2012-6-27,75,65,58,61,56,52,89,73,55,29.72,29.55,2,0,0,0.00
2012-6-28,83,70,58,61,57,52,93,65,36,29.74,29.67,2,0,0,0.00
2012-6-29,87,74,63,74,64,50,100,75,35,29.70,29.53,2,0,0,0.00
2012-6-30,88,79,66,66,59,52,80,53,35,29.72,29.62,2,0,0,0.00
2012-7-1,89,77,69,69,65,62,90,70,42,29.82,29.71,2,0,0,0.00
2012-7-2,83,72,66,68,64,60,95,77,49,29.86,29.80,1,0,0,0.00
2012-7-3,84,73,63,64,59,53,90,64,36,29.91,29.82,1,0,0,0.00
2012-7-4,85,74,66,73,69,62,100,84,64,29.83,29.66,0,0,0,0.00
2012-7-5,80,74,67,72,66,62,100,78,57,29.84,29.65,1,0,0,0.00
2012-7-6,85,74,63,70,65,60,94,75,51,29.91,29.81,0,0,0,0.00
2012-7-7,81,75,70,73,68,65,92,80,64,29.82,29.71,1,0,0,0.00
2012-7-8,85,75,65,69,64,57,95,70,46,29.86,29.75,1,0,0,0.00
2012-7-9,81,70,60,57,54,48,79,58,37,29.96,29.86,1,0,0,0.00
2012-7-10,76,65,58,58,52,47,76,62,37,30.06,29.96,0,0,0,0.00
2012-7-11,86,73,61,64,60,55,96,68,38,30.17,30.06,1,0,0,0.00
2012-7-12,87,74,61,66,63,59,100,71,40,30.18,30.08,1,0,0,0.00
2012-7-13,86,75,65,71,65,59,84,71,58,30.17,30.11,2,0,0,0.00
2012-7-14,87,77,69,73,67,64,89,73,55,30.14,30.04,2,0,0,0.00
2012-7-15,87,77,68,73,69,64,96,76,54,30.08,29.86,1,0,0,0.00
2012-7-16,89,78,70,72,70,68,98,78,50,29.86,29.72,1,0,0,0.00
2012-7-17,92,80,70,71,69,66,92,69,47,29.77,29.66,2,1,0,0.00
2012-7-18,94,79,70,75,72,68,100,80,52,29.88,29.67,3,0,0,0.00
2012-7-19,79,70,62,72,62,57,100,79,50,30.00,29.86,1,0,0,0.00
2012-7-20,71,66,60,63,59,56,98,79,61,30.06,29.99,0,0,0,0.00
2012-7-21,78,66,54,60,55,50,100,72,38,30.10,30.04,1,0,0,0.00
2012-7-22,83,70,58,64,60,57,96,72,43,30.12,30.06,2,0,0,0.00
2012-7-23,82,72,63,72,67,60,98,85,65,30.08,29.77,2,0,0,0.00
2012-7-24,87,75,68,73,68,55,100,80,55,29.75,29.52,3,0,0,0.00
2012-7-25,81,70,60,58,55,53,81,60,40,29.80,29.68,2,0,0,0.00
2012-7-26,81,72,64,72,65,57,98,80,68,29.77,29.57,2,0,0,0.00
2012-7-27,74,70,68,74,69,67,100,95,89,29.89,29.58,1,0,0,0.00
2012-7-28,79,69,65,70,66,64,100,91,60,29.96,29.89,1,0,4,0.69
2012-7-29,70,66,62,67,64,59,100,94,81,30.05,29.91,0,0,3,0.09
2012-7-30,81,69,58,66,62,58,100,82,57,30.11,30.05,1,0,0,0.00
2012-7-31,76,67,59,67,63,59,100,88,64,30.10,29.89,1,0,0,0.00
2012-8-1,82,70,64,73,68,64,100,94,68,29.91,29.83,1,0,0,0.00
2012-8-2,86,75,66,73,69,66,100,84,56,29.88,29.80,1,0,0,0.00
2012-8-3,90,79,69,73,70,66,100,78,47,30.06,29.88,1,0,0,0.00
2012-8-4,90,79,71,76,72,69,100,82,56,30.19,30.08,1,0,0,0.00
2012-8-5,88,76,71,76,73,71,100,90,64,30.20,29.91,3,1,0,0.00
2012-8-6,81,74,67,73,64,56,100,74,44,29.97,29.91,2,0,0,0.00
2012-8-7,83,71,59,67,62,58,99,74,50,30.00,29.92,1,0,0,0.00
2012-8-8,86,74,63,70,65,61,100,77,44,29.97,29.92,1,0,0,0.00
2012-8-9,88,77,68,73,70,66,100,81,49,29.95,29.86,1,0,0,0.00
2012-8-10,82,74,70,73,71,70,100,93,71,29.91,29.77,2,0,0,0.00
2012-8-11,83,74,67,75,71,67,100,91,74,29.90,29.80,1,0,0,0.00
2012-8-12,82,73,70,75,71,-100,100,96,74,29.91,29.84,1,0,0,0.00
2012-8-13,84,73,64,70,66,62,100,80,49,29.93,29.88,1,0,0,0.00
2012-8-14,80,72,64,68,65,62,97,81,62,29.93,29.88,0,0,0,0.00
2012-8-15,80,71,65,71,68,65,100,91,69,29.91,29.82,2,0,0,0.00
2012-8-16,81,71,65,71,65,61,100,83,57,29.85,29.78,2,0,0,0.00
2012-8-17,83,73,63,70,66,61,100,79,58,29.83,29.74,2,0,0,0.00
2012-8-18,70,65,61,68,64,61,100,97,85,29.87,29.80,0,0,0,0.00
2012-8-19,72,64,57,63,58,52,100,81,63,29.94,29.88,0,0,0,0.00
2012-8-20,77,67,57,62,59,55,100,78,49,29.91,29.82,0,0,0,0.00
2012-8-21,80,69,62,64,60,55,97,75,46,30.06,29.88,1,0,0,0.00
2012-8-22,81,70,58,63,58,54,89,68,44,30.13,30.06,1,0,0,0.00
2012-8-23,83,72,62,68,64,61,98,78,53,30.12,30.06,1,0,0,0.00
2012-8-24,81,72,64,68,65,63,98,79,57,30.19,30.09,0,0,0,0.00
2012-8-25,81,73,64,69,63,58,100,74,55,30.31,30.24,0,0,4,0.00
2012-8-26,81,69,60,65,62,58,100,79,51,30.32,30.21,1,0,4,0.00
2012-8-27,83,70,58,70,64,58,100,83,58,30.21,29.91,3,0,11,0.00
2012-8-28,81,73,67,71,68,60,100,85,62,29.91,29.70,1,0,11,0.15
2012-8-29,73,64,55,60,52,46,88,69,41,29.96,29.86,2,0,9,0.04
2012-8-30,78,67,55,59,54,51,88,66,41,30.03,29.94,2,0,7,0.01
2012-8-31,85,74,64,64,58,53,73,59,40,29.95,29.79,2,0,12,0.01
2012-9-1,78,71,61,66,61,55,87,72,57,30.10,29.82,1,0,7,0.00
2012-9-2,78,65,58,66,59,56,99,82,56,30.13,30.02,1,0,5,0.00
2012-9-3,77,65,56,62,59,56,100,82,53,30.22,30.11,1,0,5,0.00
2012-9-4,71,66,60,71,65,56,100,98,77,30.14,29.85,1,0,4,0.16
2012-9-5,79,72,65,74,70,64,100,94,71,29.85,29.70,2,0,10,0.05
2012-9-6,76,69,63,69,66,63,100,91,74,29.89,29.82,1,0,7,0.03
2012-9-7,83,72,64,73,68,64,100,88,62,29.92,29.83,0,0,6,0.03
2012-9-8,80,72,62,73,69,62,100,91,71,29.88,29.60,4,1,15,0.02
2012-9-9,71,62,56,62,58,53,100,86,59,29.83,29.69,0,0,4,0.02
2012-9-10,64,58,51,55,50,44,97,76,55,30.03,29.82,2,0,12,0.01
2012-9-11,70,58,47,53,47,43,86,69,41,30.24,30.03,2,0,5,0.01
2012-9-12,76,62,49,59,53,47,97,77,45,30.33,30.24,1,0,4,0.01
2012-9-13,79,66,56,63,60,56,100,82,54,30.33,30.23,3,0,10,0.01
2012-9-14,79,67,58,64,62,58,100,84,55,30.25,30.06,3,0,12,0.01
2012-9-15,70,62,53,63,56,47,100,81,53,30.06,29.97,4,0,14,0.01
2012-9-16,68,58,48,51,48,45,95,72,44,30.06,29.96,2,0,7,0.01
2012-9-17,72,59,46,58,51,45,97,77,50,30.08,30.00,2,0,7,0.01
2012-9-18,71,63,53,69,62,53,100,95,81,30.03,29.66,7,1,26,0.01
2012-9-19,69,62,53,69,53,43,100,76,42,30.16,29.66,7,1,17,0.01
2012-9-20,64,53,45,50,46,42,97,78,55,30.24,30.14,1,0,5,0.01
2012-9-21,63,52,45,55,50,45,100,92,69,30.15,30.02,1,0,3,0.01
2012-9-22,71,60,52,63,57,52,100,92,70,30.02,29.80,2,0,6,0.01
2012-9-23,67,60,50,64,52,-100,100,78,49,30.06,29.77,3,0,9,0.01
2012-9-24,64,52,42,45,43,40,94,73,46,30.10,30.03,2,0,10,0.01
2012-9-25,69,56,42,53,47,41,97,75,47,30.14,30.07,4,1,13,0.01
2012-9-26,69,62,54,64,59,52,100,91,79,30.11,29.97,3,0,10,0.01
2012-9-27,68,60,51,63,54,46,100,81,50,30.22,29.97,2,0,10,0.01
2012-9-28,54,52,49,54,52,48,100,100,96,30.22,29.96,0,0,5,0.01
2012-9-29,54,53,51,54,53,51,100,100,100,29.96,29.86,1,0,6,0.01
2012-9-30,57,53,50,57,53,50,100,100,100,29.89,29.69,0,0,3,0.01
2012-10-1,64,54,47,55,51,47,100,89,67,29.92,29.68,4,1,11,0.01
2012-10-2,67,58,53,61,56,52,100,93,67,30.03,29.91,0,0,3,0.01
2012-10-3,63,60,59,63,60,59,100,100,100,30.14,30.01,0,0,1,0.01
2012-10-4,60,58,58,60,58,58,100,100,100,30.14,30.11,0,0,3,0.01
2012-10-14,64,57,45,55,53,44,100,88,70,30.11,29.92,3,1,0,0.00
2012-10-15,73,64,58,62,59,55,96,84,67,29.92,29.58,4,1,0,0.00
2012-10-16,62,50,41,61,43,35,100,76,54,29.85,29.55,3,1,0,0.00
2012-10-17,58,46,35,41,36,32,92,71,40,29.97,29.85,1,0,0,0.00
2012-10-18,64,50,39,49,44,38,100,81,50,30.09,29.97,1,0,0,0.00
2012-10-19,66,58,48,65,57,47,100,97,74,30.06,29.70,2,0,0,0.00
2012-10-20,71,64,56,65,58,43,100,83,47,29.72,29.59,3,0,0,0.00
2012-10-21,61,52,42,44,42,40,96,70,47,29.86,29.72,3,1,0,0.00
2012-10-22,64,55,46,46,44,42,87,67,47,29.98,29.86,3,1,0,0.00
2012-10-23,63,54,48,48,44,41,85,70,51,30.08,29.98,1,0,0,0.00
2012-10-24,53,50,45,45,40,33,88,68,55,30.19,30.08,0,0,0,0.00
2012-10-25,62,51,41,46,38,29,100,67,31,30.27,30.19,1,0,0,0.00
2012-10-26,65,54,44,55,49,42,99,84,68,30.23,30.09,2,0,0,0.00
2012-10-27,63,53,46,55,50,46,100,90,75,30.11,29.97,0,0,0,0.00
2012-10-28,53,50,48,52,50,47,100,97,90,29.99,29.74,3,1,0,0.00
2012-10-29,60,55,48,60,55,48,100,100,100,29.74,29.19,13,6,33,0.00
2012-10-30,66,59,53,61,57,53,100,94,68,29.54,29.26,4,1,13,0.02
2012-10-31,53,50,46,53,48,40,100,92,78,29.54,29.44,3,0,10,0.01
2012-11-1,55,48,40,42,40,37,91,76,60,29.54,29.47,4,0,12,0.02
2012-11-2,50,46,43,42,38,34,91,75,60,29.58,29.51,3,0,9,0.02
2012-11-3,51,44,40,36,34,30,79,68,53,29.77,29.58,4,1,14,0.01
2012-11-4,51,41,35,37,32,29,86,71,56,29.91,29.77,3,1,11,0.01
2012-11-5,42,36,29,29,23,18,71,60,46,30.09,29.91,4,1,13,0.01
2012-11-6,40,32,26,22,17,14,73,55,35,30.19,30.09,2,0,9,0.24
2012-11-7,34,31,28,28,25,21,97,78,62,30.14,29.71,6,3,15,0.10
2012-11-8,37,34,29,36,33,28,100,98,85,29.72,29.59,5,4,0,0.00
2012-11-9,52,42,34,33,27,21,84,60,32,30.06,29.72,4,1,0,0.00
2012-11-10,54,43,36,36,31,28,88,65,40,30.41,30.06,1,0,0,0.00
2012-11-11,62,50,38,47,41,33,89,74,52,30.46,30.37,3,1,0,0.00
2012-11-12,67,57,48,59,51,44,100,83,58,30.43,30.20,4,2,0,0.00
2012-11-13,64,49,35,61,47,31,98,92,79,30.39,30.08,5,1,0,0.00
2012-11-14,44,37,32,31,25,-100,82,64,47,30.50,30.38,3,0,0,0.00
2012-11-15,42,34,29,30,27,24,87,74,54,30.43,30.27,2,0,0,0.00
2012-11-16,44,36,31,30,28,24,90,72,53,30.39,30.24,0,0,0,0.00
2012-11-17,48,38,32,33,29,25,91,70,50,30.61,30.39,1,0,0,0.00
2012-11-18,47,35,27,33,29,23,95,78,53,30.67,30.57,2,0,0,0.00
2012-11-19,47,37,29,35,30,23,94,77,62,30.57,30.23,1,0,0,0.00
2012-11-20,49,38,29,36,32,26,99,80,59,30.24,30.09,1,0,0,0.00
2012-11-21,48,41,36,40,33,25,89,72,62,30.22,30.12,2,0,0,0.00
2012-11-22,54,44,38,41,38,34,96,80,57,30.24,30.09,1,0,0,0.00
2012-11-23,56,43,30,46,39,30,100,88,49,30.09,29.61,2,1,0,0.00
2012-11-24,47,40,31,45,26,16,93,60,38,29.63,29.51,6,2,0,0.00
2012-11-25,37,32,29,23,19,15,71,58,47,29.82,29.62,6,2,0,0.00
2012-11-26,45,35,28,26,23,20,80,63,39,30.20,29.82,5,1,0,0.00
2012-11-27,35,32,30,33,29,24,100,89,76,30.28,30.18,0,0,0,0.00
2012-11-28,35,31,29,31,29,23,100,91,79,30.18,30.08,2,0,0,0.00
2012-11-29,40,34,28,27,24,21,82,69,50,30.22,30.11,3,2,0,0.00
2012-11-30,36,31,28,26,13,0,79,50,26,30.50,30.16,2,0,0,0.00
2012-12-1,28,27,25,27,21,9,97,80,44,30.58,30.46,0,0,0,0.00
2012-12-2,48,36,28,46,35,27,100,97,88,30.46,30.01,4,0,0,0.00
2012-12-3,56,48,39,47,43,37,99,82,60,30.26,29.98,4,1,0,0.00
2012-12-4,56,43,33,56,43,32,100,98,92,30.28,29.94,3,0,0,0.00
2012-12-5,56,48,32,56,38,17,99,71,51,30.10,29.80,5,3,0,0.00
2012-12-6,38,30,24,20,15,-100,77,57,41,30.28,30.10,2,0,0,0.00
2012-12-7,43,34,24,40,29,18,100,84,69,30.25,29.99,2,0,0,0.00
2012-12-8,43,41,40,43,41,40,100,100,100,29.99,29.82,2,0,0,0.00
2012-12-9,44,40,37,44,37,30,100,87,67,30.25,29.92,2,0,0,0.00
2012-12-10,57,48,37,57,48,36,100,100,98,30.12,29.47,2,0,0,0.00
2012-12-11,54,42,31,54,33,21,100,71,53,30.10,29.49,3,1,0,0.00
2012-12-12,38,32,27,24,22,19,78,66,52,30.38,30.10,1,0,0,0.00
2012-12-13,41,32,26,27,23,21,87,70,50,30.43,30.25,1,0,0,0.00
2012-12-14,46,35,27,27,24,20,84,66,35,30.25,30.02,4,1,0,0.00
2012-12-15,40,33,28,29,24,17,85,69,44,30.29,30.11,1,0,0,0.00
2012-12-16,31,28,27,31,24,19,100,84,72,30.28,30.03,1,0,0,0.00
2012-12-17,32,30,27,32,30,27,100,100,100,30.03,29.76,1,0,0,0.00
2012-12-18,44,39,32,44,39,32,100,100,100,29.76,29.38,3,1,0,0.00
2012-12-19,44,39,35,40,33,29,100,80,65,29.99,29.41,5,2,0,0.00
2012-12-20,40,35,29,33,29,26,92,80,65,30.17,29.99,2,0,0,0.00
2012-12-21,52,42,35,52,40,32,100,93,76,30.00,29.04,6,3,0,0.00
2012-12-22,36,32,27,31,23,15,90,70,53,29.60,29.19,6,3,0,0.00
2012-12-23,36,31,27,24,19,15,69,61,51,29.82,29.60,4,2,0,0.00
2012-12-24,38,31,28,21,19,17,76,60,44,30.01,29.82,2,0,0,0.00
2012-12-25,33,29,25,28,23,17,91,79,68,30.18,29.94,1,0,0,0.00
2012-12-26,34,27,20,33,20,11,100,75,58,30.27,29.88,3,1,0,0.00
2012-12-27,40,34,29,40,34,29,100,100,100,29.88,29.23,7,3,0,0.00
2012-12-28,34,29,25,29,23,20,100,79,65,29.97,29.58,4,2,0,0.00
2012-12-29,31,27,24,29,24,21,100,90,77,29.97,29.36,2,0,0,0.00
2012-12-30,29,25,19,27,18,7,100,75,51,29.93,29.39,5,2,0,0.00
2012-12-31,32,25,17,23,16,7,76,69,59,30.00,29.72,5,2,12,0.02
2013-1-1,35,30,19,25,18,4,72,60,50,29.88,29.67,5,2,19,0.02